Terminal Aerodrome Forecast
Issued by NWS

Home | Current Version | Previous Version | Text Only | Print | Product List | Glossary On
Versions: 1 2 3 4 5 6 7 8 9 10 11 12 13 14
686
FTUS43 KIND 231120
TAFHUF
TAF
KHUF 231120Z 2312/2412 07010KT 6SM SHRA OVC090
     FM231500 09015KT P6SM VCSH OVC025
      TEMPO 2315/2319 4SM SHRA OVC015
     FM232100 08010KT P6SM OVC015 PROB30 2321/2403 4SM -SHRA OVC009
     FM240500 06005KT P6SM OVC008
     FM241000 05005KT P6SM OVC010=

USA.gov is the U.S. government's official web portal to all federal, state and local government web resources and services.